Hlavní strana
METAR-TAF:

METAR-TAF

Letiště :

Air Force Base Hoedspruit - Eastgate Airport

Hoedspruit, Jihoafrická republika

zeměpisná šířka: 24-21-17S, zeměpisná délka: 31-03-01E, výška: 531 m

Aktuální stav počasí

Zpráva byla vytvořena před 52 minutami, v 19:00 UTC
Jižní vítr 7 kt
Teplota 17°C
Vlhkost vzduchu 68%
Tlak 1024 hPa

METAR: FAHS 051900Z AUTO 18007KT //// // ////// 17/11 Q1024

Čas: 21:52 (19:52 UTC)

Předpověď počasí

Zpráva byla vytvořena před 7 hodinami a 37 minutami, v 12:15 UTC
Předpověď platná od 05 v 10 UTC do 05 v 18 UTC
Jižní vítr 12 kt
Viditelnost 10 km a více
Polojasno ve výšce 2500 ft
Zataženo ve výšce 4000 ft

TAF: FAHS 051215Z 0510/0518 18012KT 9999 SCT025 OVC040 TX20/0512Z TN16/0518Z

Stav a předpovědi počasí z více než 4 000 letišť (zprávy METAR a TAF).

Červené a žluté tečky na mapě představují dostupné meteorologické stanice.

Když kurzor umístíte na tečku, zobrazí se název stanice.

Pak kliknutím zobrazíte stav a předpověď počasí.

Chcete-li změnit mapu, kliknutím na zelené tlačítko se znaménkem +mapu přiblížíte, kliknutím na zelené tlačítko se znaménkem – mapu oddálíte a kliknutím na zelené šipky přejdete na sousední mapy.


METAR-TAF: